createdAt,value
2019-01-19T00:02:37.399Z,31.60
2019-01-19T00:06:02.344Z,31.27
2019-01-19T00:08:49.349Z,23.47
2019-01-19T00:12:06.236Z,29.17
2019-01-19T00:15:08.905Z,30.03
2019-01-19T00:18:25.683Z,33.33
2019-01-19T00:21:03.305Z,27.97
2019-01-19T00:24:25.490Z,32.93
2019-01-19T00:27:20.289Z,33.67
2019-01-19T00:30:26.173Z,31.30
2019-01-19T00:33:23.477Z,35.83
2019-01-19T00:36:20.375Z,29.47
2019-01-19T00:39:25.546Z,34.73
2019-01-19T00:42:23.253Z,36.03
2019-01-19T00:45:08.198Z,32.20
2019-01-19T00:48:17.223Z,41.43
2019-01-19T00:51:29.878Z,31.97
2019-01-19T00:54:06.063Z,40.80
2019-01-19T00:57:09.826Z,32.17
2019-01-19T00:59:43.731Z,32.13
2019-01-19T01:02:31.137Z,34.43
2019-01-19T01:05:41.852Z,36.20
2019-01-19T01:08:55.290Z,39.67
2019-01-19T01:12:00.650Z,35.57
2019-01-19T01:15:22.586Z,34.50
2019-01-19T01:18:03.519Z,36.10
2019-01-19T01:20:43.560Z,35.97
2019-01-19T01:23:52.945Z,39.67
2019-01-19T01:26:43.684Z,36.97
2019-01-19T01:29:53.666Z,35.13
2019-01-19T01:33:02.605Z,35.33
2019-01-19T01:36:05.602Z,37.53
2019-01-19T01:39:00.050Z,36.93
2019-01-19T01:42:02.093Z,40.43
2019-01-19T01:45:05.728Z,35.10
2019-01-19T01:48:10.590Z,36.23
2019-01-19T01:50:50.510Z,34.97
2019-01-19T01:54:00.674Z,36.23
2019-01-19T01:56:32.464Z,40.30
2019-01-19T01:59:14.748Z,43.23
2019-01-19T02:01:57.338Z,37.33
2019-01-19T02:05:06.472Z,35.17
2019-01-19T02:08:15.828Z,33.87
2019-01-19T02:11:32.562Z,35.57
2019-01-19T02:14:41.634Z,32.77
2019-01-19T02:17:37.929Z,35.20
2019-01-19T02:20:43.117Z,38.53
2019-01-19T02:23:53.031Z,38.90
2019-01-19T02:27:11.200Z,34.50
2019-01-19T02:30:02.883Z,32.57
2019-01-19T02:33:04.600Z,34.93
2019-01-19T02:36:03.136Z,30.37
2019-01-19T02:39:04.237Z,32.70
2019-01-19T02:42:07.671Z,25.87
2019-01-19T02:45:26.632Z,26.27
2019-01-19T02:48:36.507Z,25.30
2019-01-19T02:51:31.443Z,26.57
2019-01-19T02:54:23.344Z,29.13
2019-01-19T02:57:47.131Z,32.33
2019-01-19T03:01:06.572Z,27.27
2019-01-19T03:04:22.763Z,30.20
2019-01-19T03:07:35.307Z,27.03
2019-01-19T03:10:28.813Z,32.37
2019-01-19T03:13:54.568Z,26.17
2019-01-19T03:17:23.041Z,35.53
2019-01-19T03:20:34.180Z,28.87
2019-01-19T03:23:59.622Z,30.23
2019-01-19T03:27:18.186Z,34.47
2019-01-19T03:30:17.386Z,30.30
2019-01-19T03:33:18.326Z,29.60
2019-01-19T03:36:34.310Z,31.10
2019-01-19T03:39:44.772Z,28.87
2019-01-19T03:42:46.480Z,30.40
2019-01-19T03:45:33.200Z,32.40
2019-01-19T03:48:57.594Z,27.87
2019-01-19T03:51:52.872Z,29.57
2019-01-19T03:54:48.324Z,34.07
2019-01-19T03:58:01.728Z,34.63
2019-01-19T04:01:02.390Z,34.00
2019-01-19T04:03:51.405Z,37.23
2019-01-19T04:06:53.730Z,33.63
2019-01-19T04:09:57.329Z,33.33
2019-01-19T04:12:39.376Z,33.90
2019-01-19T04:15:46.877Z,37.10
2019-01-19T04:18:45.396Z,33.47
2019-01-19T04:21:46.945Z,28.40
2019-01-19T04:24:23.564Z,36.47
2019-01-19T04:26:56.076Z,31.50
2019-01-19T04:29:25.541Z,32.87
2019-01-19T04:31:54.992Z,32.43
2019-01-19T04:34:24.752Z,36.40
2019-01-19T04:36:54.292Z,48.20
2019-01-19T04:39:23.736Z,39.43
2019-01-19T04:41:53.245Z,39.63
2019-01-19T04:44:22.693Z,44.97
2019-01-19T04:46:52.175Z,43.77
2019-01-19T04:49:21.628Z,42.87
2019-01-19T04:51:51.119Z,42.50
2019-01-19T04:54:20.552Z,37.67
2019-01-19T04:56:50.053Z,35.60
2019-01-19T04:59:19.538Z,31.13
2019-01-19T05:01:48.990Z,34.80
2019-01-19T05:04:18.518Z,31.67
2019-01-19T05:06:47.968Z,34.47
2019-01-19T05:09:17.435Z,30.03
2019-01-19T05:11:46.930Z,35.87
2019-01-19T05:14:16.388Z,37.97
2019-01-19T05:16:45.853Z,36.10
2019-01-19T05:19:15.337Z,37.00
2019-01-19T05:21:44.778Z,33.80
2019-01-19T05:24:14.207Z,33.07
2019-01-19T05:26:43.727Z,34.73
2019-01-19T05:29:13.177Z,38.90
2019-01-19T05:31:42.623Z,31.10
2019-01-19T05:34:12.141Z,30.83
2019-01-19T05:36:41.583Z,35.93
2019-01-19T05:39:11.011Z,31.67
2019-01-19T05:41:40.489Z,36.80
2019-01-19T05:44:09.994Z,36.33
2019-01-19T05:46:39.473Z,38.93
2019-01-19T05:49:08.914Z,33.73
2019-01-19T05:51:41.327Z,43.00
2019-01-19T05:54:10.779Z,40.93
2019-01-19T05:56:40.223Z,35.07
2019-01-19T05:59:09.710Z,35.10
2019-01-19T06:01:39.303Z,32.87
2019-01-19T06:04:08.747Z,29.63
2019-01-19T06:06:46.364Z,37.50
2019-01-19T06:09:09.709Z,45.47
2019-01-19T06:11:39.215Z,44.90
2019-01-19T06:14:08.658Z,32.70
2019-01-19T06:16:38.173Z,35.83
2019-01-19T06:19:07.954Z,32.37
2019-01-19T06:21:43.774Z,28.00
2019-01-19T06:24:13.252Z,39.13
2019-01-19T06:26:42.710Z,31.13
2019-01-19T06:29:12.212Z,28.70
2019-01-19T06:31:41.642Z,31.67
2019-01-19T06:34:11.150Z,30.03
2019-01-19T06:36:40.851Z,28.07
2019-01-19T06:39:10.445Z,30.13
2019-01-19T06:41:39.964Z,36.40
2019-01-19T06:44:09.802Z,36.10
2019-01-19T06:46:39.335Z,32.83
2019-01-19T06:49:08.873Z,28.67
2019-01-19T06:51:38.896Z,27.27
2019-01-19T06:54:08.806Z,24.03
2019-01-19T06:56:38.260Z,30.70
2019-01-19T06:59:07.720Z,29.17
2019-01-19T07:01:37.236Z,28.40
2019-01-19T07:04:06.806Z,34.30
2019-01-19T07:06:36.275Z,29.03
2019-01-19T07:09:08.254Z,26.07
2019-01-19T07:11:37.924Z,27.73
2019-01-19T07:14:07.390Z,31.03
2019-01-19T07:16:36.876Z,24.63
2019-01-19T07:19:06.310Z,34.17
2019-01-19T07:21:35.770Z,33.90
2019-01-19T07:24:05.255Z,27.10
2019-01-19T07:26:34.717Z,34.90
2019-01-19T07:29:05.493Z,32.33
2019-01-19T07:31:35.102Z,33.30
2019-01-19T07:34:04.551Z,38.23
2019-01-19T07:36:33.996Z,33.93
2019-01-19T07:39:03.497Z,36.20
2019-01-19T07:41:35.146Z,38.43
2019-01-19T07:44:04.628Z,34.17
2019-01-19T07:46:36.551Z,32.83
2019-01-19T07:49:06.012Z,29.47
2019-01-19T07:51:35.437Z,29.30
2019-01-19T07:54:04.920Z,29.70
2019-01-19T07:56:34.362Z,31.83
2019-01-19T07:59:06.095Z,29.40
2019-01-19T08:01:35.579Z,22.70
2019-01-19T08:04:05.029Z,25.27
2019-01-19T08:06:34.493Z,29.77
2019-01-19T08:09:05.509Z,28.47
2019-01-19T08:11:34.957Z,32.37
2019-01-19T08:14:04.671Z,26.30
2019-01-19T08:16:35.786Z,28.77
2019-01-19T08:19:05.263Z,22.03
2019-01-19T08:21:34.734Z,28.73
2019-01-19T08:24:05.461Z,23.83
2019-01-19T08:26:34.920Z,31.93
2019-01-19T08:29:04.370Z,29.43
2019-01-19T08:31:34.161Z,35.73
2019-01-19T08:34:04.153Z,30.53
2019-01-19T08:36:33.653Z,33.90
2019-01-19T08:39:03.947Z,23.00
2019-01-19T08:41:33.413Z,26.63
2019-01-19T08:44:05.111Z,24.30
2019-01-19T08:46:34.610Z,26.33
2019-01-19T08:49:04.085Z,27.97
2019-01-19T08:51:33.570Z,22.07
2019-01-19T08:54:05.024Z,28.33
2019-01-19T08:56:34.489Z,29.37
2019-01-19T08:59:05.993Z,24.83
2019-01-19T09:01:35.452Z,27.83
2019-01-19T09:04:04.940Z,28.27
2019-01-19T09:06:34.424Z,23.37
2019-01-19T09:09:05.810Z,24.63
2019-01-19T09:11:35.273Z,25.63
2019-01-19T09:14:04.917Z,20.33
2019-01-19T09:16:39.571Z,26.40
2019-01-19T09:19:05.474Z,23.27
2019-01-19T09:21:34.980Z,22.13
2019-01-19T09:24:10.786Z,19.17
2019-01-19T09:26:40.307Z,19.57
2019-01-19T09:29:09.868Z,23.10
2019-01-19T09:31:39.304Z,29.37
2019-01-19T09:34:08.787Z,26.30
2019-01-19T09:36:38.284Z,22.93
2019-01-19T09:39:11.360Z,37.77
2019-01-19T09:41:40.859Z,54.03
2019-01-19T09:44:10.650Z,37.17
2019-01-19T09:46:40.126Z,31.43
2019-01-19T09:49:09.599Z,28.77
2019-01-19T09:51:39.142Z,32.67
2019-01-19T09:54:08.662Z,34.90
2019-01-19T09:56:38.116Z,36.17
2019-01-19T09:59:07.564Z,27.40
2019-01-19T10:01:37.085Z,30.33
2019-01-19T10:04:06.618Z,31.47
2019-01-19T10:06:36.504Z,35.23
2019-01-19T10:09:08.388Z,30.07
2019-01-19T10:11:37.846Z,27.67
2019-01-19T10:14:07.282Z,28.10
2019-01-19T10:16:36.777Z,25.80
2019-01-19T10:19:06.250Z,27.60
2019-01-19T10:21:36.127Z,27.40
2019-01-19T10:24:05.714Z,25.13
2019-01-19T10:26:35.157Z,23.93
2019-01-19T10:29:05.094Z,29.93
2019-01-19T10:31:34.620Z,33.73
2019-01-19T10:34:04.092Z,38.67
2019-01-19T10:36:34.949Z,38.50
2019-01-19T10:39:08.659Z,30.53
2019-01-19T10:41:41.126Z,33.60
2019-01-19T10:44:09.216Z,32.70
2019-01-19T10:46:38.719Z,28.63
2019-01-19T10:49:08.178Z,36.57
2019-01-19T10:51:37.662Z,24.60
2019-01-19T10:54:09.007Z,39.87
2019-01-19T10:56:38.451Z,41.83
2019-01-19T10:59:07.889Z,38.37
2019-01-19T11:01:37.491Z,29.67
2019-01-19T11:04:08.095Z,36.37
2019-01-19T11:06:37.538Z,30.07
2019-01-19T11:09:08.151Z,29.27
2019-01-19T11:11:37.641Z,25.37
2019-01-19T11:14:08.087Z,24.80
2019-01-19T11:16:37.599Z,22.00
2019-01-19T11:19:07.098Z,27.83
2019-01-19T11:21:36.540Z,21.97
2019-01-19T11:24:05.997Z,20.03
2019-01-19T11:26:35.481Z,24.47
2019-01-19T11:29:04.986Z,21.37
2019-01-19T11:31:36.520Z,27.80
2019-01-19T11:34:05.989Z,30.37
2019-01-19T11:36:35.459Z,26.50
2019-01-19T11:39:07.873Z,27.83
2019-01-19T11:41:37.346Z,29.87
2019-01-19T11:44:06.880Z,35.33
2019-01-19T11:46:36.425Z,31.67
2019-01-19T11:49:06.024Z,30.90
2019-01-19T11:51:35.553Z,28.90
2019-01-19T11:54:06.016Z,29.53
2019-01-19T11:56:35.470Z,28.93
2019-01-19T11:59:04.945Z,29.37
2019-01-19T12:01:36.662Z,25.93
2019-01-19T12:04:06.379Z,32.90
2019-01-19T12:06:35.845Z,32.10
2019-01-19T12:09:09.002Z,32.87
2019-01-19T12:11:38.512Z,28.07
2019-01-19T12:14:08.350Z,33.03
2019-01-19T12:16:37.800Z,36.80
2019-01-19T12:19:08.888Z,34.97
2019-01-19T12:21:39.368Z,31.93
2019-01-19T12:24:08.903Z,35.57
2019-01-19T12:26:38.380Z,34.67
2019-01-19T12:29:08.308Z,34.77
2019-01-19T12:31:37.806Z,32.43
2019-01-19T12:34:07.302Z,35.00
2019-01-19T12:36:36.730Z,38.53
2019-01-19T12:39:09.297Z,28.50
2019-01-19T12:41:38.939Z,23.20
2019-01-19T12:44:11.230Z,25.13
2019-01-19T12:46:40.704Z,23.30
2019-01-19T12:49:10.196Z,28.10
2019-01-19T12:51:39.646Z,26.50
2019-01-19T12:54:09.145Z,27.30
2019-01-19T12:56:38.622Z,27.13
2019-01-19T12:59:08.068Z,25.47
2019-01-19T13:01:37.493Z,25.30
2019-01-19T13:04:08.639Z,32.47
2019-01-19T13:07:06.858Z,29.97
2019-01-19T13:09:45.933Z,25.60
2019-01-19T13:12:42.933Z,25.60
2019-01-19T13:15:58.747Z,29.77
2019-01-19T13:19:15.717Z,45.90
2019-01-19T13:22:38.529Z,51.23
2019-01-19T13:25:41.457Z,36.83
2019-01-19T13:29:10.543Z,46.20
2019-01-19T13:31:48.581Z,35.07
2019-01-19T13:34:40.819Z,25.73
2019-01-19T13:38:03.818Z,35.23
2019-01-19T13:41:09.796Z,30.47
2019-01-19T13:44:20.417Z,28.23
2019-01-19T13:47:20.533Z,52.57
2019-01-19T13:50:21.660Z,48.20
2019-01-19T13:53:34.923Z,40.77
2019-01-19T13:56:33.206Z,30.40
2019-01-19T13:59:40.045Z,32.73
2019-01-19T14:02:52.483Z,36.50
2019-01-19T14:05:43.654Z,35.83
2019-01-19T14:09:21.699Z,46.30
2019-01-19T14:12:30.529Z,44.40
2019-01-19T14:15:13.092Z,51.70
2019-01-19T14:18:10.882Z,48.10
2019-01-19T14:21:11.146Z,33.53
2019-01-19T14:24:01.108Z,33.60
2019-01-19T14:27:01.984Z,32.97
2019-01-19T14:30:17.376Z,39.80
2019-01-19T14:33:15.002Z,28.50
2019-01-19T14:36:19.129Z,31.40
2019-01-19T14:39:42.626Z,25.40
2019-01-19T14:42:33.277Z,31.90
2019-01-19T14:45:13.770Z,33.43
2019-01-19T14:48:15.162Z,41.60
2019-01-19T14:51:30.301Z,47.27
2019-01-19T14:54:32.664Z,55.73
2019-01-19T14:57:58.275Z,68.73
2019-01-19T15:01:17.882Z,66.30
2019-01-19T15:04:19.066Z,64.33
2019-01-19T15:07:25.116Z,65.00
2019-01-19T15:10:48.074Z,52.93
2019-01-19T15:13:58.608Z,57.03
2019-01-19T15:17:11.161Z,63.27
2019-01-19T15:20:11.908Z,62.17
2019-01-19T15:23:34.535Z,55.37
2019-01-19T15:26:57.056Z,58.93
2019-01-19T15:30:03.384Z,88.97
2019-01-19T15:33:32.370Z,71.80
2019-01-19T15:36:34.102Z,73.50
2019-01-19T15:39:35.760Z,73.13
2019-01-19T15:42:49.078Z,66.03
2019-01-19T15:45:54.847Z,58.30
2019-01-19T15:49:05.545Z,54.40
2019-01-19T15:52:18.144Z,62.10
2019-01-19T15:55:10.874Z,67.47
2019-01-19T15:58:12.790Z,75.07
2019-01-19T16:01:05.499Z,97.67
2019-01-19T16:04:16.001Z,115.80
2019-01-19T16:07:21.172Z,130.57
2019-01-19T16:10:34.559Z,134.67
2019-01-19T16:13:31.299Z,123.33
2019-01-19T16:16:34.764Z,148.93
2019-01-19T16:19:22.496Z,117.53
2019-01-19T16:22:47.974Z,109.13
2019-01-19T16:26:09.430Z,88.93
2019-01-19T16:29:07.521Z,72.67
2019-01-19T16:32:00.290Z,67.43
2019-01-19T16:35:29.331Z,70.93
2019-01-19T16:38:39.625Z,130.13
2019-01-19T16:41:34.610Z,190.80
2019-01-19T16:44:56.152Z,236.57
2019-01-19T16:47:51.857Z,226.03
2019-01-19T16:51:20.771Z,187.17
2019-01-19T16:54:16.957Z,140.00
2019-01-19T16:57:15.292Z,120.97
2019-01-19T17:00:07.321Z,125.77
2019-01-19T17:03:09.936Z,122.67
2019-01-19T17:06:28.246Z,105.77
2019-01-19T17:09:36.796Z,95.33
2019-01-19T17:12:45.131Z,103.20
2019-01-19T17:15:30.006Z,102.67
2019-01-19T17:18:28.815Z,116.13
2019-01-19T17:21:42.757Z,103.90
2019-01-19T17:24:51.012Z,82.77
2019-01-19T17:28:04.835Z,79.97
2019-01-19T17:31:13.239Z,70.83
2019-01-19T17:34:14.334Z,65.43
2019-01-19T17:36:59.512Z,62.77
2019-01-19T17:39:52.517Z,64.60
2019-01-19T17:42:52.155Z,68.83
2019-01-19T17:45:35.067Z,69.30
2019-01-19T17:48:40.139Z,64.63
2019-01-19T17:51:49.498Z,59.70
2019-01-19T17:54:49.059Z,67.23
2019-01-19T17:57:50.785Z,64.03
2019-01-19T18:01:01.308Z,64.80
2019-01-19T18:04:02.765Z,55.03
2019-01-19T18:06:48.147Z,63.30
2019-01-19T18:10:08.126Z,64.93
2019-01-19T18:12:55.101Z,66.50
2019-01-19T18:16:06.268Z,71.37
2019-01-19T18:19:05.183Z,63.13
2019-01-19T18:22:21.719Z,52.47
2019-01-19T18:25:18.832Z,46.50
2019-01-19T18:28:30.483Z,54.37
2019-01-19T18:31:46.061Z,53.13
2019-01-19T18:34:34.625Z,47.87
2019-01-19T18:37:39.663Z,60.13
2019-01-19T18:40:41.226Z,60.43
2019-01-19T18:43:36.648Z,61.53
2019-01-19T18:46:49.811Z,55.63
2019-01-19T18:49:44.587Z,49.60
2019-01-19T18:52:46.196Z,51.27
2019-01-19T18:55:58.470Z,51.70
2019-01-19T18:59:14.119Z,59.10
2019-01-19T19:01:59.799Z,58.00
2019-01-19T19:05:00.283Z,69.97
2019-01-19T19:07:54.024Z,67.90
2019-01-19T19:11:03.805Z,65.20
2019-01-19T19:14:29.266Z,71.20
2019-01-19T19:17:42.654Z,79.23
2019-01-19T19:20:43.594Z,75.07
2019-01-19T19:23:50.040Z,67.30
2019-01-19T19:27:09.224Z,83.10
2019-01-19T19:30:08.890Z,80.97
2019-01-19T19:32:48.667Z,77.67
2019-01-19T19:35:55.293Z,68.10
2019-01-19T19:39:27.285Z,78.83
2019-01-19T19:42:22.575Z,81.03
2019-01-19T19:45:45.206Z,76.07
2019-01-19T19:49:13.974Z,75.03
2019-01-19T19:52:06.130Z,82.43
2019-01-19T19:54:37.360Z,81.03
2019-01-19T19:57:06.925Z,90.30
2019-01-19T19:59:36.392Z,87.60
2019-01-19T20:02:05.881Z,83.83
2019-01-19T20:04:37.023Z,100.33
2019-01-19T20:07:06.656Z,88.23
2019-01-19T20:09:36.168Z,100.90
2019-01-19T20:12:08.331Z,102.37
2019-01-19T20:14:37.928Z,108.90
2019-01-19T20:17:08.358Z,110.20
2019-01-19T20:19:37.848Z,100.97
2019-01-19T20:22:07.414Z,110.90
2019-01-19T20:24:36.945Z,102.30
2019-01-19T20:27:06.408Z,106.37
2019-01-19T20:29:35.905Z,112.47
2019-01-19T20:32:06.490Z,116.53
2019-01-19T20:34:36.018Z,119.57
2019-01-19T20:37:05.829Z,116.60
2019-01-19T20:39:35.646Z,117.70
2019-01-19T20:42:05.481Z,120.57
2019-01-19T20:44:35.005Z,109.47
2019-01-19T20:47:04.889Z,113.83
2019-01-19T20:49:35.515Z,102.50
2019-01-19T20:52:06.417Z,101.43
2019-01-19T20:54:37.132Z,102.20
2019-01-19T20:57:06.609Z,107.17
2019-01-19T20:59:36.109Z,93.50
2019-01-19T21:02:06.796Z,104.73
2019-01-19T21:04:36.258Z,98.23
2019-01-19T21:07:07.917Z,80.57
2019-01-19T21:09:37.425Z,95.13
2019-01-19T21:12:06.897Z,98.53
2019-01-19T21:14:36.423Z,85.13
2019-01-19T21:17:07.025Z,87.73
2019-01-19T21:19:36.490Z,82.77
2019-01-19T21:22:06.375Z,77.03
2019-01-19T21:24:35.857Z,91.23
2019-01-19T21:27:06.737Z,98.13
2019-01-19T21:29:37.287Z,92.33
2019-01-19T21:32:06.828Z,85.63
2019-01-19T21:34:36.301Z,84.77
2019-01-19T21:37:08.091Z,84.87
2019-01-19T21:39:37.581Z,75.57
2019-01-19T21:42:07.038Z,73.70
2019-01-19T21:44:36.623Z,88.93
2019-01-19T21:47:06.453Z,79.77
2019-01-19T21:49:35.946Z,83.53
2019-01-19T21:52:05.948Z,80.77
2019-01-19T21:54:35.507Z,86.50
2019-01-19T21:57:07.230Z,85.00
2019-01-19T21:59:36.808Z,89.03
2019-01-19T22:02:06.263Z,89.23
2019-01-19T22:04:36.163Z,82.23
2019-01-19T22:07:05.800Z,80.73
2019-01-19T22:09:36.745Z,76.17
2019-01-19T22:12:06.298Z,80.30
2019-01-19T22:14:35.815Z,72.67
2019-01-19T22:17:05.548Z,81.67
2019-01-19T22:19:35.039Z,72.23
2019-01-19T22:22:04.907Z,75.43
2019-01-19T22:24:34.455Z,79.07
2019-01-19T22:27:07.059Z,78.20
2019-01-19T22:29:36.569Z,74.57
2019-01-19T22:32:06.063Z,75.03
2019-01-19T22:34:35.521Z,75.67
2019-01-19T22:37:05.450Z,70.27
2019-01-19T22:39:35.034Z,71.90
2019-01-19T22:42:04.674Z,74.40
2019-01-19T22:44:34.241Z,69.20
2019-01-19T22:47:03.730Z,73.87
2019-01-19T22:49:33.193Z,81.00
2019-01-19T22:52:02.732Z,73.57
2019-01-19T22:54:32.262Z,74.23
2019-01-19T22:57:01.722Z,70.17
2019-01-19T22:59:31.254Z,76.50
2019-01-19T23:02:12.068Z,87.07
2019-01-19T23:04:41.622Z,70.77
2019-01-19T23:07:11.086Z,86.73
2019-01-19T23:09:40.565Z,65.67
2019-01-19T23:12:10.096Z,80.07
2019-01-19T23:14:40.061Z,75.03
2019-01-19T23:17:09.504Z,72.73
2019-01-19T23:19:39.064Z,73.33
2019-01-19T23:22:08.535Z,79.33
2019-01-19T23:24:38.000Z,82.73
2019-01-19T23:27:08.106Z,83.37
2019-01-19T23:29:37.586Z,76.00
2019-01-19T23:32:07.041Z,83.07
2019-01-19T23:34:36.563Z,81.07
2019-01-19T23:37:08.103Z,82.57
2019-01-19T23:39:37.590Z,74.33
2019-01-19T23:42:07.555Z,84.57
2019-01-19T23:44:37.076Z,86.00
2019-01-19T23:47:06.663Z,87.13
2019-01-19T23:49:36.517Z,103.70
2019-01-19T23:52:07.225Z,93.20
2019-01-19T23:54:36.777Z,87.40
2019-01-19T23:57:06.620Z,104.00
2019-01-19T23:59:37.599Z,109.03
